Time;durP1;ratioP1;P1;durP2;ratioP2;P2;SDS_P1;SDS_P2;PMS_P1;PMS_P2;Temp;Humidity;BMP_temperature;BMP_pressure;BME280_temperature;BME280_humidity;BME280_pressure;Samples;Min_cycle;Max_cycle;Signal;HPM_P1;HPM_P2
2022/06/17 00:00:10;;;;;;;4.27;3.87;;;;;;;14.67;70.42;101181.06;5101942;28;20448;-65
2022/06/17 00:02:38;;;;;;;5.40;4.63;;;;;;;14.66;70.32;101173.13;5102850;28;20848;-66
2022/06/17 00:05:05;;;;;;;4.37;3.93;;;;;;;14.66;70.64;101167.75;5102384;28;20450;-65
2022/06/17 00:07:32;;;;;;;5.67;5.17;;;;;;;14.62;70.75;101167.19;5102272;28;20440;-66
2022/06/17 00:09:58;;;;;;;5.77;4.63;;;;;;;14.50;71.09;101168.31;5092062;28;20452;-65
2022/06/17 00:12:25;;;;;;;7.33;4.30;;;;;;;14.41;71.69;101178.09;5081361;28;20483;-65
2022/06/17 00:17:38;;;;;;;5.40;4.10;;;;;;;14.46;71.36;101165.06;5102093;28;20527;-65
2022/06/17 00:20:06;;;;;;;5.30;4.60;;;;;;;14.40;71.28;101162.91;5100246;28;20438;-65
2022/06/17 00:22:33;;;;;;;5.13;4.60;;;;;;;14.30;71.92;101167.47;5081927;28;20539;-65
2022/06/17 00:25:01;;;;;;;5.20;4.70;;;;;;;14.22;72.18;101168.19;5081571;28;20641;-65
2022/06/17 00:27:28;;;;;;;5.50;4.30;;;;;;;14.25;72.13;101167.91;5081458;28;20976;-66
2022/06/17 00:29:56;;;;;;;4.80;4.40;;;;;;;14.19;72.38;101168.47;5081994;28;20452;-66
2022/06/17 00:32:22;;;;;;;4.53;4.07;;;;;;;14.13;72.68;101180.63;5080561;28;20559;-66
2022/06/17 00:34:49;;;;;;;6.40;4.70;;;;;;;14.07;72.52;101193.78;5081507;28;20515;-65
2022/06/17 00:37:16;;;;;;;4.80;4.10;;;;;;;14.08;72.32;101187.44;5081419;28;20747;-64
2022/06/17 00:39:43;;;;;;;6.50;4.73;;;;;;;14.05;72.16;101201.16;5080701;28;20832;-64
2022/06/17 00:42:13;;;;;;;6.07;4.27;;;;;;;14.05;72.41;101198.47;5080983;28;20858;-64
2022/06/17 00:44:43;;;;;;;5.63;4.23;;;;;;;14.06;72.81;101203.72;5081076;28;20448;-64
2022/06/17 00:47:19;;;;;;;8.10;4.47;;;;;;;13.99;72.85;101197.19;5079823;28;20476;-64
2022/06/17 00:49:49;;;;;;;4.70;4.30;;;;;;;13.93;73.14;101197.72;5081395;28;20466;-64
2022/06/17 00:52:21;;;;;;;6.20;4.63;;;;;;;13.84;73.55;101203.97;5080632;28;20483;-64
2022/06/17 00:54:52;;;;;;;5.90;3.93;;;;;;;13.82;73.65;101201.41;5080753;28;20495;-64
2022/06/17 00:57:22;;;;;;;4.80;4.40;;;;;;;13.76;73.71;101193.88;5079764;28;20479;-65
2022/06/17 01:00:01;;;;;;;7.03;4.80;;;;;;;13.72;74.17;101190.63;5080876;28;20498;-64
2022/06/17 01:02:30;;;;;;;4.83;4.33;;;;;;;13.74;74.35;101191.31;5080663;28;20471;-64
2022/06/17 01:04:57;;;;;;;8.40;4.87;;;;;;;13.69;74.48;101195.41;5081669;28;20478;-65
2022/06/17 01:07:27;;;;;;;5.90;5.30;;;;;;;13.69;74.39;101204.31;5080883;28;20460;-64
2022/06/17 01:09:58;;;;;;;5.33;4.43;;;;;;;13.71;74.37;101193.44;5080510;28;20476;-64
2022/06/17 01:12:27;;;;;;;4.70;4.20;;;;;;;13.68;74.26;101189.22;5080212;28;20523;-65
2022/06/17 01:14:54;;;;;;;4.93;4.53;;;;;;;13.65;74.38;101184.09;5080834;28;20492;-64
2022/06/17 01:17:21;;;;;;;5.57;4.60;;;;;;;13.65;74.31;101183.25;5060710;28;20499;-64
2022/06/17 01:19:51;;;;;;;6.57;4.20;;;;;;;13.60;74.20;101177.44;5060895;28;20540;-64
2022/06/17 01:22:24;;;;;;;9.97;4.30;;;;;;;13.56;74.71;101180.41;5079722;28;20475;-64
2022/06/17 01:24:54;;;;;;;6.33;4.90;;;;;;;13.51;74.67;101189.88;5079816;28;20456;-65
2022/06/17 01:27:22;;;;;;;6.23;5.20;;;;;;;13.48;74.79;101188.28;5080404;28;20502;-64
2022/06/17 01:29:49;;;;;;;5.60;4.60;;;;;;;13.45;75.05;101190.41;5080841;28;20984;-64
2022/06/17 01:32:18;;;;;;;8.40;4.33;;;;;;;13.34;74.51;101184.13;5079492;28;20551;-64
2022/06/17 01:34:45;;;;;;;6.50;5.10;;;;;;;13.26;75.09;101191.13;5080894;28;20420;-64
2022/06/17 01:37:12;;;;;;;5.50;4.67;;;;;;;13.24;75.26;101179.69;5079859;28;20490;-65
2022/06/17 01:39:40;;;;;;;5.50;4.40;;;;;;;13.22;75.59;101197.78;5079907;28;21100;-65
2022/06/17 01:42:09;;;;;;;5.73;5.13;;;;;;;13.23;75.69;101197.66;5080003;28;20480;-65
2022/06/17 01:44:37;;;;;;;6.03;5.37;;;;;;;13.28;75.38;101200.78;5079505;28;20913;-64
2022/06/17 01:47:08;;;;;;;7.43;5.40;;;;;;;13.28;75.28;101189.16;5059921;28;20479;-65
2022/06/17 01:49:37;;;;;;;7.97;5.30;;;;;;;13.28;75.38;101195.41;5060379;28;20448;-66
2022/06/17 01:52:07;;;;;;;6.20;4.60;;;;;;;13.27;75.74;101200.91;5079451;28;20580;-66
2022/06/17 01:54:39;;;;;;;6.10;4.77;;;;;;;13.23;75.57;101194.09;5079559;28;20483;-66
2022/06/17 01:57:09;;;;;;;7.13;4.93;;;;;;;13.23;75.76;101202.16;5080445;28;20514;-65
2022/06/17 01:59:40;;;;;;;7.37;5.03;;;;;;;13.22;75.62;101187.03;5080063;28;20452;-65
2022/06/17 02:02:08;;;;;;;5.67;4.93;;;;;;;13.18;75.75;101192.66;5079018;28;20566;-65
2022/06/17 02:04:38;;;;;;;5.40;4.53;;;;;;;13.12;75.90;101187.84;5080101;28;20948;-64
2022/06/17 02:07:10;;;;;;;7.13;5.60;;;;;;;13.06;76.07;101196.44;5079850;28;20548;-65
2022/06/17 02:09:37;;;;;;;7.03;4.83;;;;;;;13.14;76.78;101201.13;5079581;28;20479;-64
2022/06/17 02:12:05;;;;;;;6.97;5.10;;;;;;;13.07;77.40;101191.91;5079332;28;20938;-65
2022/06/17 02:14:34;;;;;;;7.17;4.80;;;;;;;13.17;77.80;101185.59;5080289;28;20442;-66
2022/06/17 02:17:01;;;;;;;8.10;4.80;;;;;;;13.00;78.05;101195.13;5078989;28;20533;-64
2022/06/17 02:19:29;;;;;;;5.20;4.70;;;;;;;12.94;78.36;101187.59;5079797;28;20463;-64
2022/06/17 02:21:59;;;;;;;5.87;5.07;;;;;;;12.88;78.47;101190.84;5079250;28;21026;-64
2022/06/17 02:24:27;;;;;;;5.80;5.07;;;;;;;12.92;78.56;101194.94;5079492;28;20443;-65
2022/06/17 02:26:55;;;;;;;4.77;4.37;;;;;;;12.95;78.57;101183.94;5079456;28;20480;-64
2022/06/17 02:29:22;;;;;;;5.67;4.77;;;;;;;12.93;78.49;101188.59;5079605;28;20448;-64
2022/06/17 02:31:50;;;;;;;7.23;5.53;;;;;;;12.93;78.87;101190.41;5079326;28;20550;-64
2022/06/17 02:34:18;;;;;;;5.87;5.27;;;;;;;12.93;79.16;101193.09;5080242;28;20483;-66
2022/06/17 02:36:49;;;;;;;5.47;4.97;;;;;;;12.90;78.67;101191.53;5079211;28;20480;-65
2022/06/17 02:39:16;;;;;;;5.70;5.10;;;;;;;12.68;78.74;101189.84;5079244;28;20477;-65
2022/06/17 02:41:44;;;;;;;5.50;4.90;;;;;;;12.59;78.92;101191.50;5078765;28;20483;-67
2022/06/17 02:44:16;;;;;;;5.90;5.40;;;;;;;12.48;79.24;101191.56;5079917;28;20443;-65
2022/06/17 02:46:44;;;;;;;7.93;5.63;;;;;;;12.49;79.63;101195.09;5078158;28;20484;-66
2022/06/17 02:49:16;;;;;;;5.87;5.00;;;;;;;12.50;79.24;101194.97;5079751;28;20447;-66
2022/06/17 02:51:43;;;;;;;5.90;5.30;;;;;;;12.56;79.79;101190.91;5078611;28;20484;-66
2022/06/17 02:54:12;;;;;;;9.70;5.50;;;;;;;12.63;79.42;101190.22;5079580;28;20420;-66
2022/06/17 02:56:39;;;;;;;5.90;5.40;;;;;;;12.66;78.94;101186.44;5078721;28;20479;-66
2022/06/17 02:59:12;;;;;;;9.13;5.40;;;;;;;12.76;78.67;101189.22;5079611;28;20444;-67
2022/06/17 03:01:41;;;;;;;6.93;5.40;;;;;;;12.73;78.94;101190.31;5079044;28;20479;-65
2022/06/17 03:04:12;;;;;;;7.50;5.57;;;;;;;12.77;78.85;101182.84;5080112;28;20834;-65
2022/06/17 03:06:42;;;;;;;6.27;5.50;;;;;;;12.79;78.56;101186.25;5078868;28;20510;-65
2022/06/17 03:09:18;;;;;;;7.20;6.20;;;;;;;12.81;78.69;101185.13;5079650;28;20471;-65
2022/06/17 03:11:47;;;;;;;6.00;5.40;;;;;;;12.88;78.01;101192.66;5078512;28;20517;-65
2022/06/17 03:14:14;;;;;;;6.30;5.70;;;;;;;12.91;77.91;101189.69;5079835;28;20443;-64
2022/06/17 03:16:42;;;;;;;6.13;5.63;;;;;;;12.98;77.31;101182.81;5077895;28;20507;-65
2022/06/17 03:19:09;;;;;;;7.40;5.07;;;;;;;13.05;77.01;101173.25;5078646;28;20547;-65
2022/06/17 03:21:37;;;;;;;5.00;4.33;;;;;;;13.06;77.34;101188.38;5082288;28;20472;-66
2022/06/17 03:24:11;;;;;;;6.90;5.23;;;;;;;14.26;74.26;101182.19;5083313;28;20474;-65
2022/06/17 03:26:40;;;;;;;5.93;5.43;;;;;;;15.98;67.53;101184.59;5082530;28;20485;-65
2022/06/17 03:29:09;;;;;;;6.63;5.10;;;;;;;17.01;62.16;101175.16;5082743;28;20475;-66
2022/06/17 03:31:39;;;;;;;4.83;4.10;;;;;;;17.88;58.71;101189.41;5082219;28;21000;-66
2022/06/17 03:34:07;;;;;;;6.90;4.80;;;;;;;17.76;58.21;101187.97;5083062;28;20841;-66
2022/06/17 03:36:38;;;;;;;4.40;3.80;;;;;;;17.24;59.48;101178.16;5082243;28;20526;-66
2022/06/17 03:39:15;;;;;;;4.73;4.20;;;;;;;18.51;56.37;101185.22;5082464;28;20456;-66
2022/06/17 03:41:48;;;;;;;7.03;3.70;;;;;;;19.51;52.81;101184.00;5081940;28;20503;-66
2022/06/17 03:44:16;;;;;;;7.23;4.00;;;;;;;20.40;50.22;101186.38;5082702;28;20448;-66
2022/06/17 03:46:48;;;;;;;3.93;3.53;;;;;;;19.66;51.98;101184.94;5080808;28;20475;-66
2022/06/17 03:49:17;;;;;;;4.33;3.63;;;;;;;17.41;58.60;101184.47;5082733;28;20474;-66
2022/06/17 03:51:44;;;;;;;4.57;3.63;;;;;;;16.25;62.58;101176.56;5082004;28;20464;-66
2022/06/17 03:54:14;;;;;;;5.57;3.83;;;;;;;16.00;64.19;101173.66;5082642;28;20478;-66
2022/06/17 03:56:43;;;;;;;4.87;3.80;;;;;;;15.83;65.00;101183.41;5081849;28;20479;-66
2022/06/17 03:59:16;;;;;;;4.53;4.03;;;;;;;15.66;66.29;101190.47;5082242;28;20475;-65
2022/06/17 04:01:45;;;;;;;4.33;3.93;;;;;;;15.75;65.85;101184.19;5081511;28;20488;-66
2022/06/17 04:04:16;;;;;;;5.10;4.30;;;;;;;16.44;64.38;101189.06;5082273;28;20455;-66
2022/06/17 04:06:44;;;;;;;7.33;4.20;;;;;;;17.05;62.09;101190.03;5081602;28;20479;-66
2022/06/17 04:09:18;;;;;;;5.00;3.93;;;;;;;18.75;56.77;101188.94;5082632;28;20479;-66
2022/06/17 04:11:46;;;;;;;5.20;4.17;;;;;;;18.67;55.93;101199.78;5081098;28;20507;-65
2022/06/17 04:14:18;;;;;;;4.20;3.63;;;;;;;17.95;59.81;101194.97;5081430;28;20447;-66
2022/06/17 04:16:50;;;;;;;4.80;4.27;;;;;;;17.09;61.01;101191.41;5080329;28;20513;-66
2022/06/17 04:19:19;;;;;;;6.07;4.43;;;;;;;16.77;62.15;101192.88;5082018;28;20452;-66
2022/06/17 04:21:45;;;;;;;5.27;3.73;;;;;;;17.28;62.05;101191.16;5081961;28;20472;-66
2022/06/17 04:24:16;;;;;;;4.70;4.17;;;;;;;18.28;58.82;101190.47;5081897;28;20865;-66
2022/06/17 04:26:44;;;;;;;6.00;4.40;;;;;;;18.91;56.43;101197.06;5074646;28;20538;-66
2022/06/17 04:29:13;;;;;;;5.27;4.13;;;;;;;19.57;53.45;101197.69;5077687;28;20451;-66
2022/06/17 04:31:40;;;;;;;4.80;3.80;;;;;;;20.54;51.05;101196.44;5075910;28;20511;-66
2022/06/17 04:34:11;;;;;;;5.00;4.27;;;;;;;21.60;47.13;101191.75;5075564;28;20487;-66
2022/06/17 04:36:42;;;;;;;4.30;3.90;;;;;;;21.92;46.28;101188.78;5077755;28;20472;-65
2022/06/17 04:39:30;;;;;;;4.97;3.57;;;;;;;21.31;46.14;101187.16;5072006;28;20519;-66
2022/06/17 04:42:00;;;;;;;4.60;3.90;;;;;;;21.24;46.55;101181.63;5079841;28;20479;-66
2022/06/17 04:44:27;;;;;;;4.73;3.87;;;;;;;21.08;47.12;101175.56;5080400;28;20452;-67
2022/06/17 04:46:58;;;;;;;4.90;4.33;;;;;;;21.62;45.59;101181.53;5079462;28;20487;-67
2022/06/17 04:49:27;;;;;;;4.33;3.93;;;;;;;21.66;46.06;101187.41;5081237;28;20511;-66
2022/06/17 04:51:56;;;;;;;4.33;3.87;;;;;;;22.18;44.90;101183.59;5080754;28;20563;-66
2022/06/17 04:54:23;;;;;;;4.97;4.00;;;;;;;21.94;44.45;101179.41;5080464;28;20454;-67
2022/06/17 04:56:52;;;;;;;4.07;3.67;;;;;;;22.25;44.07;101185.56;5080257;28;20476;-68
2022/06/17 04:59:31;;;;;;;4.40;3.70;;;;;;;22.71;43.26;101193.34;5080624;28;20529;-68
2022/06/17 05:01:58;;;;;;;4.00;3.47;;;;;;;24.21;39.76;101204.59;5070570;28;20809;-68
2022/06/17 05:04:26;;;;;;;5.23;4.07;;;;;;;22.96;41.83;101198.34;5080811;28;20454;-68
2022/06/17 05:06:54;;;;;;;4.27;3.80;;;;;;;22.68;42.34;101201.91;5079536;28;20499;-69
2022/06/17 05:09:23;;;;;;;6.97;4.37;;;;;;;23.27;41.57;101196.03;5080072;28;20448;-70
2022/06/17 05:11:55;;;;;;;5.87;3.93;;;;;;;22.97;42.23;101197.28;5078468;28;20484;-68
2022/06/17 05:14:27;;;;;;;4.23;3.50;;;;;;;23.61;40.91;101213.44;5080048;28;20445;-71
2022/06/17 05:16:54;;;;;;;5.47;3.47;;;;;;;22.92;42.29;101208.78;5078684;28;20569;-69
2022/06/17 05:19:21;;;;;;;4.53;4.13;;;;;;;22.77;42.25;101218.94;5081250;28;20446;-69
2022/06/17 05:21:48;;;;;;;7.10;4.10;;;;;;;24.58;38.88;101222.34;5079665;28;20535;-68
2022/06/17 05:24:15;;;;;;;5.57;3.40;;;;;;;24.52;38.73;101225.03;5081042;28;20493;-68
2022/06/17 05:26:42;;;;;;;4.50;4.10;;;;;;;24.19;39.17;101226.66;5079983;28;20812;-68
2022/06/17 05:29:10;;;;;;;5.40;4.30;;;;;;;23.38;41.37;101223.78;5080674;28;20471;-68
2022/06/17 05:31:37;;;;;;;3.97;3.63;;;;;;;23.64;41.02;101228.53;5079966;28;20538;-68
2022/06/17 05:34:04;;;;;;;6.83;4.33;;;;;;;24.28;39.07;101227.31;5081084;28;20917;-68
2022/06/17 05:36:31;;;;;;;5.40;4.10;;;;;;;23.07;42.62;101222.34;5079762;28;20491;-67
2022/06/17 05:38:57;;;;;;;3.73;3.43;;;;;;;24.23;40.43;101213.41;5080338;28;20480;-67
2022/06/17 05:41:24;;;;;;;5.07;3.77;;;;;;;23.65;41.13;101192.84;5080056;28;20502;-68
2022/06/17 05:43:51;;;;;;;4.93;4.23;;;;;;;24.68;39.20;101189.09;5079972;28;20448;-69
2022/06/17 05:46:19;;;;;;;5.90;4.00;;;;;;;24.67;39.50;101198.34;5079313;28;20504;-67
2022/06/17 05:48:46;;;;;;;5.50;3.97;;;;;;;24.26;39.76;101210.28;5080835;28;20465;-68
2022/06/17 05:51:13;;;;;;;4.87;4.43;;;;;;;23.61;41.95;101202.50;5080113;28;20543;-67
2022/06/17 05:53:40;;;;;;;4.90;3.90;;;;;;;24.36;39.69;101207.97;5080235;28;20531;-68
2022/06/17 05:56:06;;;;;;;4.00;3.60;;;;;;;25.02;39.04;101195.38;5079312;28;20499;-69
2022/06/17 05:58:33;;;;;;;4.73;3.60;;;;;;;24.56;39.71;101199.81;5080224;28;20500;-69
2022/06/17 06:01:00;;;;;;;5.70;4.20;;;;;;;25.10;38.66;101195.16;5072137;28;20467;-68
2022/06/17 06:03:29;;;;;;;6.90;3.97;;;;;;;25.96;36.76;101212.34;5059033;28;20496;-69
2022/06/17 06:05:55;;;;;;;4.90;3.63;;;;;;;26.17;36.26;101204.84;5059345;28;21074;-69
2022/06/17 06:08:22;;;;;;;5.23;3.67;;;;;;;26.71;34.93;101208.06;5059951;28;20575;-68
2022/06/17 06:10:50;;;;;;;8.53;3.87;;;;;;;26.21;36.10;101212.41;5057425;28;20473;-69
2022/06/17 06:13:18;;;;;;;4.80;3.37;;;;;;;26.69;35.83;101213.78;5059772;28;20480;-68
2022/06/17 06:15:47;;;;;;;5.77;3.73;;;;;;;27.41;34.69;101222.38;5058709;28;20481;-69
2022/06/17 06:18:16;;;;;;;5.63;3.43;;;;;;;25.42;37.86;101225.41;5059167;28;20457;-68
2022/06/17 06:20:45;;;;;;;4.73;3.00;;;;;;;25.80;37.79;101216.41;5059089;28;20757;-68
2022/06/17 06:23:11;;;;;;;5.20;3.50;;;;;;;26.71;36.59;101219.03;5070860;28;20436;-69
2022/06/17 06:25:38;;;;;;;4.60;3.23;;;;;;;28.20;33.77;101223.50;5078059;28;20467;-69
2022/06/17 06:28:10;;;;;;;2.80;2.60;;;;;;;26.88;36.08;101228.38;5079776;28;20428;-69
2022/06/17 06:30:36;;;;;;;2.90;2.60;;;;;;;28.95;31.70;101233.91;5078818;28;20462;-69
2022/06/17 06:33:04;;;;;;;3.33;3.00;;;;;;;28.81;32.38;101232.50;5079269;28;20452;-69
2022/06/17 06:35:32;;;;;;;3.17;2.63;;;;;;;29.72;29.30;101232.91;5078845;28;20471;-69
2022/06/17 06:38:01;;;;;;;4.40;2.30;;;;;;;31.40;26.57;101227.75;5079568;28;20488;-70
2022/06/17 06:40:28;;;;;;;4.17;2.97;;;;;;;29.19;30.17;101225.69;5078264;28;20467;-69
2022/06/17 06:42:56;;;;;;;3.23;2.00;;;;;;;29.74;28.75;101230.72;5079673;28;20447;-69
2022/06/17 06:45:24;;;;;;;6.07;2.40;;;;;;;29.92;26.71;101224.22;5078460;28;20439;-69
2022/06/17 06:47:51;;;;;;;4.43;2.63;;;;;;;30.25;26.67;101225.38;5079275;28;20467;-69
2022/06/17 06:50:22;;;;;;;2.30;1.77;;;;;;;29.61;27.44;101233.75;5078888;28;20497;-68
2022/06/17 06:52:48;;;;;;;2.37;1.90;;;;;;;31.18;25.24;101233.28;5079069;28;20479;-67
2022/06/17 06:55:17;;;;;;;4.30;2.20;;;;;;;29.59;27.17;101250.53;5079505;28;20870;-67
2022/06/17 06:57:47;;;;;;;3.40;2.07;;;;;;;29.56;27.56;101245.50;5077274;28;20501;-68
2022/06/17 07:00:17;;;;;;;4.50;2.20;;;;;;;28.37;29.27;101254.75;5075893;28;20455;-68
2022/06/17 07:02:44;;;;;;;4.03;2.10;;;;;;;29.63;27.29;101248.97;5083387;28;20478;-67
2022/06/17 07:05:10;;;;;;;2.90;1.83;;;;;;;31.32;25.12;101242.03;5082697;28;20458;-68
2022/06/17 07:07:37;;;;;;;3.30;1.87;;;;;;;32.73;23.81;101252.50;5082599;28;20435;-68
2022/06/17 07:10:05;;;;;;;2.50;1.87;;;;;;;31.89;23.64;101247.19;5081427;28;20448;-67
2022/06/17 07:12:33;;;;;;;3.83;2.13;;;;;;;31.51;24.06;101242.59;5081404;28;20467;-69
2022/06/17 07:15:00;;;;;;;2.23;1.60;;;;;;;29.91;25.91;101239.09;5081031;28;20452;-69
2022/06/17 07:17:27;;;;;;;4.20;2.37;;;;;;;30.27;25.11;101238.91;5081421;28;20599;-69
2022/06/17 07:19:53;;;;;;;3.17;1.90;;;;;;;31.24;22.84;101232.25;5081968;28;20699;-68
2022/06/17 07:22:20;;;;;;;4.03;2.00;;;;;;;29.42;25.54;101222.88;5081556;28;20511;-68
2022/06/17 07:24:47;;;;;;;4.30;2.00;;;;;;;29.38;25.55;101207.94;5082627;28;20432;-69
2022/06/17 07:27:13;;;;;;;3.90;2.17;;;;;;;28.89;25.61;101205.44;5082853;28;20495;-68
2022/06/17 07:29:41;;;;;;;3.43;2.10;;;;;;;28.94;24.82;101204.75;5083526;28;20653;-68
2022/06/17 07:32:09;;;;;;;3.37;1.90;;;;;;;29.59;24.52;101211.94;5083328;28;21048;-68
2022/06/17 07:34:35;;;;;;;2.90;2.00;;;;;;;31.93;21.71;101216.28;5083415;28;20455;-68
2022/06/17 07:39:55;;;;;;;3.90;2.53;;;;;;;31.01;22.48;101200.16;5082613;28;20982;-68
2022/06/17 07:42:22;;;;;;;2.60;1.90;;;;;;;32.38;21.91;101196.53;5082390;28;20483;-68
2022/06/17 07:44:51;;;;;;;3.03;1.60;;;;;;;30.92;23.25;101196.97;5082208;28;20436;-69
2022/06/17 07:47:21;;;;;;;2.50;1.70;;;;;;;31.49;21.82;101187.56;5081710;28;20472;-68
2022/06/17 07:49:48;;;;;;;4.63;1.70;;;;;;;30.55;24.07;101197.53;5082190;28;20623;-69
2022/06/17 07:52:15;;;;;;;3.17;1.97;;;;;;;30.21;23.72;101188.34;5081020;28;20484;-68
2022/06/17 07:54:42;;;;;;;21.57;5.03;;;;;;;31.16;22.65;101180.19;5069923;28;20775;-67
2022/06/17 07:57:08;;;;;;;3.60;1.70;;;;;;;32.13;21.51;101186.06;5077031;28;20527;-68
2022/06/17 07:59:35;;;;;;;2.13;1.73;;;;;;;32.22;21.73;101186.41;5076361;28;20459;-68
2022/06/17 08:02:03;;;;;;;3.80;2.07;;;;;;;32.83;21.68;101188.88;5068508;28;20483;-69
2022/06/17 08:04:30;;;;;;;4.60;2.57;;;;;;;32.30;21.35;101182.34;5061007;28;20433;-68
2022/06/17 08:06:57;;;;;;;2.97;2.33;;;;;;;32.76;20.85;101185.47;5060084;28;20476;-67
2022/06/17 08:09:28;;;;;;;2.80;2.37;;;;;;;31.62;22.65;101183.56;5061023;28;20468;-68
2022/06/17 08:11:59;;;;;;;3.67;2.30;;;;;;;29.72;25.25;101179.66;5059387;28;20480;-68
2022/06/17 08:14:31;;;;;;;4.60;2.43;;;;;;;27.56;28.13;101172.53;5075593;28;20451;-69
2022/06/17 08:17:02;;;;;;;5.13;3.17;;;;;;;28.14;27.40;101173.00;5079814;28;20484;-68
2022/06/17 08:19:36;;;;;;;7.33;2.43;;;;;;;30.16;25.75;101161.50;5080982;28;20466;-68
2022/06/17 08:22:08;;;;;;;2.20;2.00;;;;;;;31.32;23.25;101159.97;5078881;28;20534;-66
2022/06/17 08:24:35;;;;;;;4.60;2.07;;;;;;;30.56;24.93;101168.81;5079786;28;20436;-69
2022/06/17 08:27:03;;;;;;;3.83;2.20;;;;;;;30.38;23.97;101164.41;5081036;28;20510;-69
2022/06/17 08:29:30;;;;;;;5.60;2.60;;;;;;;28.90;26.00;101165.84;5081369;28;20448;-69
2022/06/17 08:32:44;;;;;;;5.60;2.43;;;;;;;29.77;25.09;101164.13;5080524;28;20518;-67
2022/06/17 08:34:45;;;;;;;4.13;2.73;;;;;;;29.82;24.96;101158.69;5081329;28;20552;-69
2022/06/17 08:37:14;;;;;;;7.20;2.80;;;;;;;30.52;24.77;101155.75;5080658;28;21021;-69
2022/06/17 08:39:41;;;;;;;2.50;2.30;;;;;;;30.28;24.69;101146.81;5080097;28;20444;-68
2022/06/17 08:42:16;;;;;;;4.77;2.40;;;;;;;31.08;25.07;101153.84;5079914;28;21097;-69
2022/06/17 08:44:47;;;;;;;2.73;2.17;;;;;;;31.42;23.65;101155.66;5079175;28;20455;-69
2022/06/17 08:47:30;;;;;;;6.07;2.73;;;;;;;31.14;23.26;101155.59;5079697;28;20597;-68
2022/06/17 08:50:36;;;;;;;3.77;2.40;;;;;;;28.82;26.42;101151.56;5068131;28;20500;-68
2022/06/17 08:53:48;;;;;;;3.70;3.00;;;;;;;29.29;25.90;101152.38;5052785;28;20503;-69
2022/06/17 08:56:19;;;;;;;5.20;2.77;;;;;;;29.67;26.80;101161.13;5066765;28;20475;-69
2022/06/17 08:58:53;;;;;;;3.10;2.33;;;;;;;30.31;25.07;101149.91;5079829;28;20488;-69
2022/06/17 09:01:25;;;;;;;4.13;2.70;;;;;;;30.27;25.86;101151.47;5059223;28;20503;-68
2022/06/17 09:04:03;;;;;;;6.00;2.60;;;;;;;29.89;27.41;101144.75;5059777;28;20463;-69
2022/06/17 09:06:41;;;;;;;6.13;2.50;;;;;;;29.55;26.51;101144.66;5064529;28;20553;-68
2022/06/17 09:09:39;;;;;;;3.57;2.50;;;;;;;28.96;27.67;101154.91;5080423;28;20479;-68
2022/06/17 09:12:14;;;;;;;4.60;2.50;;;;;;;28.87;27.58;101149.81;5007799;28;20480;-68
2022/06/17 09:14:49;;;;;;;6.00;2.43;;;;;;;28.60;26.37;101156.88;5078699;28;20443;-68
2022/06/17 09:17:23;;;;;;;3.13;2.10;;;;;;;28.61;27.26;101153.88;5078347;28;20956;-67
2022/06/17 09:19:53;;;;;;;4.77;2.77;;;;;;;28.32;26.18;101164.69;5079966;28;20501;-69
2022/06/17 09:22:26;;;;;;;3.80;2.30;;;;;;;28.82;26.92;101160.69;5079012;28;20475;-68
2022/06/17 09:24:54;;;;;;;3.20;2.33;;;;;;;29.03;26.15;101163.91;5079539;28;20455;-68
2022/06/17 09:27:24;;;;;;;4.80;2.77;;;;;;;28.71;27.53;101169.78;5078869;28;20496;-68
2022/06/17 09:29:54;;;;;;;4.30;2.33;;;;;;;28.79;28.92;101166.66;5079608;28;20510;-69
2022/06/17 09:32:24;;;;;;;1.93;1.70;;;;;;;29.80;24.87;101158.09;5078642;28;20547;-66
2022/06/17 09:34:54;;;;;;;2.90;2.07;;;;;;;29.07;27.05;101154.91;5079809;28;20439;-68
2022/06/17 09:37:26;;;;;;;2.90;2.47;;;;;;;28.89;27.47;101152.31;5079357;28;20985;-69
2022/06/17 09:39:56;;;;;;;4.07;2.10;;;;;;;30.78;25.15;101163.34;5078877;28;20440;-68
2022/06/17 09:42:28;;;;;;;3.37;1.90;;;;;;;30.67;23.96;101158.75;5078869;28;20494;-68
2022/06/17 09:44:59;;;;;;;4.93;2.60;;;;;;;31.12;24.41;101165.22;5059479;28;20544;-67
2022/06/17 09:47:29;;;;;;;3.57;2.33;;;;;;;32.38;23.19;101166.09;5098687;28;20475;-68
2022/06/17 09:50:00;;;;;;;3.83;1.80;;;;;;;32.21;22.77;101170.91;5080521;28;20460;-68
2022/06/17 09:52:30;;;;;;;2.40;2.00;;;;;;;31.41;23.53;101165.88;5078826;28;20490;-69
2022/06/17 09:54:59;;;;;;;5.00;2.60;;;;;;;30.91;24.35;101161.31;5078792;28;20431;-69
2022/06/17 09:57:30;;;;;;;4.07;2.43;;;;;;;31.79;22.88;101161.38;5078715;28;20476;-69
2022/06/17 10:00:02;;;;;;;3.70;2.30;;;;;;;32.72;21.73;101157.47;5079386;28;20513;-69
2022/06/17 10:02:34;;;;;;;3.73;1.90;;;;;;;31.26;24.39;101157.41;5078505;28;20530;-68
2022/06/17 10:05:02;;;;;;;3.10;2.47;;;;;;;31.02;24.98;101157.63;5078889;28;20466;-67
2022/06/17 10:07:48;;;;;;;4.80;2.63;;;;;;;31.46;24.19;101157.66;5078577;28;20472;-67
2022/06/17 10:10:25;;;;;;;4.00;2.10;;;;;;;31.46;23.52;101156.81;5077730;28;20448;-67
2022/06/17 10:13:00;;;;;;;3.00;2.10;;;;;;;31.48;23.33;101155.47;5078601;28;20552;-68
2022/06/17 10:15:38;;;;;;;3.83;2.33;;;;;;;33.36;21.50;101150.91;5077904;28;20501;-69
2022/06/17 10:18:34;;;;;;;3.77;2.90;;;;;;;32.05;22.35;101153.34;5078954;28;20495;-68
2022/06/17 10:21:12;;;;;;;3.43;2.67;;;;;;;32.21;24.67;101152.38;5078336;28;20502;-68
2022/06/17 10:23:47;;;;;;;4.10;2.20;;;;;;;31.64;22.67;101133.56;5078708;28;20534;-68
2022/06/17 10:26:21;;;;;;;5.17;2.57;;;;;;;32.61;23.07;101145.50;5077502;28;20471;-68
2022/06/17 10:29:03;;;;;;;4.60;2.40;;;;;;;32.13;23.55;101140.97;5079652;28;20465;-68
2022/06/17 10:31:33;;;;;;;4.17;2.33;;;;;;;32.13;23.18;101139.03;5082775;28;20476;-66
2022/06/17 10:34:03;;;;;;;3.20;2.13;;;;;;;32.36;22.22;101140.63;5083048;28;20428;-68
2022/06/17 10:36:31;;;;;;;5.20;2.47;;;;;;;33.07;21.74;101125.53;5082703;28;20479;-67
2022/06/17 10:39:02;;;;;;;2.93;2.50;;;;;;;33.54;22.33;101119.09;5083284;28;20518;-68
2022/06/17 10:41:29;;;;;;;4.80;2.90;;;;;;;32.22;22.79;101118.09;5081816;28;20501;-67
2022/06/17 10:43:56;;;;;;;15.03;2.30;;;;;;;31.57;24.20;101116.34;5082785;28;20432;-68
2022/06/17 10:46:25;;;;;;;3.43;2.40;;;;;;;30.77;24.84;101120.25;5081667;28;20525;-68
2022/06/17 10:48:54;;;;;;;3.40;1.87;;;;;;;31.15;23.35;101118.59;5082621;28;20519;-68
2022/06/17 10:51:21;;;;;;;2.77;2.27;;;;;;;30.03;25.29;101121.31;5082559;28;20494;-67
2022/06/17 10:53:50;;;;;;;4.70;1.93;;;;;;;30.23;25.19;101115.28;5082649;28;20417;-68
2022/06/17 10:56:20;;;;;;;4.43;2.00;;;;;;;31.10;23.98;101106.66;5081266;28;20471;-68
2022/06/17 10:58:59;;;;;;;5.63;2.20;;;;;;;31.62;22.82;101100.63;5082609;28;20988;-68
2022/06/17 11:01:25;;;;;;;4.33;1.80;;;;;;;31.21;23.84;101091.03;5081946;28;20468;-68
2022/06/17 11:04:11;;;;;;;2.80;1.83;;;;;;;30.28;23.82;101081.44;5082453;28;20444;-68
2022/06/17 11:06:47;;;;;;;4.20;2.20;;;;;;;29.97;24.39;101080.09;5082143;28;20533;-68
2022/06/17 11:09:21;;;;;;;1.70;1.53;;;;;;;30.48;24.63;101074.59;5082092;28;20521;-69
2022/06/17 11:12:07;;;;;;;2.43;1.57;;;;;;;29.48;25.91;101075.09;5080269;28;20500;-66
2022/06/17 11:14:39;;;;;;;2.50;1.80;;;;;;;29.27;26.80;101071.94;5082537;28;20933;-68
2022/06/17 11:17:16;;;;;;;2.90;1.60;;;;;;;29.05;25.11;101060.72;5081472;28;20519;-68
2022/06/17 11:19:43;;;;;;;3.20;1.53;;;;;;;29.28;23.80;101062.56;5081866;28;20456;-68
2022/06/17 11:22:20;;;;;;;1.50;1.03;;;;;;;29.38;25.14;101069.38;5081600;28;20467;-67
2022/06/17 11:24:52;;;;;;;2.40;1.33;;;;;;;28.71;25.21;101068.81;5081785;28;20447;-68
2022/06/17 11:27:25;;;;;;;1.70;1.40;;;;;;;29.17;25.08;101060.72;5080819;28;20495;-67
2022/06/17 11:29:53;;;;;;;2.03;1.40;;;;;;;29.70;24.62;101055.06;5081350;28;20452;-67
2022/06/17 11:32:37;;;;;;;2.80;1.50;;;;;;;29.01;25.82;101061.44;5081389;28;20574;-66
2022/06/17 11:35:19;;;;;;;4.40;1.53;;;;;;;30.18;24.23;101053.69;5081562;28;20476;-67
2022/06/17 11:37:47;;;;;;;2.20;1.30;;;;;;;30.72;23.79;101061.41;5081424;28;21404;-67
2022/06/17 11:40:16;;;;;;;1.90;1.20;;;;;;;30.44;23.23;101060.47;5079928;28;20468;-68
2022/06/17 11:42:50;;;;;;;2.83;1.40;;;;;;;29.57;24.62;101062.56;5081289;28;20474;-67